sensor_id;sensor_type;location;lat;lon;timestamp;temperature;humidity
22503;DHT22;11418;48.118;9.992;2023-02-28T00:01:45;-2.20;99.90
22503;DHT22;11418;48.118;9.992;2023-02-28T00:05:45;-2.20;99.90
22503;DHT22;11418;48.118;9.992;2023-02-28T00:09:46;-2.20;99.90
22503;DHT22;11418;48.118;9.992;2023-02-28T00:13:47;-2.30;99.90
22503;DHT22;11418;48.118;9.992;2023-02-28T00:17:48;-2.20;99.90
22503;DHT22;11418;48.118;9.992;2023-02-28T00:21:49;-2.10;99.90
22503;DHT22;11418;48.118;9.992;2023-02-28T00:25:50;-2.10;99.90
22503;DHT22;11418;48.118;9.992;2023-02-28T00:29:51;-2.10;99.90
22503;DHT22;11418;48.118;9.992;2023-02-28T00:33:51;-2.10;99.90
22503;DHT22;11418;48.118;9.992;2023-02-28T00:37:52;-2.10;99.90
22503;DHT22;11418;48.118;9.992;2023-02-28T00:41:52;-2.10;99.90
22503;DHT22;11418;48.118;9.992;2023-02-28T00:45:53;-2.10;99.90
22503;DHT22;11418;48.118;9.992;2023-02-28T00:49:53;-2.10;99.90
22503;DHT22;11418;48.118;9.992;2023-02-28T00:53:54;-2.00;99.90
22503;DHT22;11418;48.118;9.992;2023-02-28T00:57:54;-2.00;99.90
22503;DHT22;11418;48.118;9.992;2023-02-28T01:01:55;-2.00;99.90
22503;DHT22;11418;48.118;9.992;2023-02-28T01:05:56;-2.00;99.90
22503;DHT22;11418;48.118;9.992;2023-02-28T01:09:56;-2.00;99.90
22503;DHT22;11418;48.118;9.992;2023-02-28T01:13:57;-2.10;99.90
22503;DHT22;11418;48.118;9.992;2023-02-28T01:17:58;-2.00;99.90
22503;DHT22;11418;48.118;9.992;2023-02-28T01:22:04;-1.90;99.90
22503;DHT22;11418;48.118;9.992;2023-02-28T01:26:12;-2.00;99.90
22503;DHT22;11418;48.118;9.992;2023-02-28T01:30:13;-1.90;99.90
22503;DHT22;11418;48.118;9.992;2023-02-28T01:34:14;-1.90;99.90
22503;DHT22;11418;48.118;9.992;2023-02-28T01:38:15;-1.90;99.90
22503;DHT22;11418;48.118;9.992;2023-02-28T01:42:15;-1.90;99.90
22503;DHT22;11418;48.118;9.992;2023-02-28T01:46:16;-1.90;99.90
22503;DHT22;11418;48.118;9.992;2023-02-28T01:50:20;-1.90;99.90
22503;DHT22;11418;48.118;9.992;2023-02-28T01:54:25;-1.90;99.90
22503;DHT22;11418;48.118;9.992;2023-02-28T01:58:26;-1.90;99.90
22503;DHT22;11418;48.118;9.992;2023-02-28T02:02:27;-1.90;99.90
22503;DHT22;11418;48.118;9.992;2023-02-28T02:06:38;-1.90;99.90
22503;DHT22;11418;48.118;9.992;2023-02-28T02:10:55;-1.90;99.90
22503;DHT22;11418;48.118;9.992;2023-02-28T02:15:16;-1.80;99.90
22503;DHT22;11418;48.118;9.992;2023-02-28T02:23:49;-1.80;99.90
22503;DHT22;11418;48.118;9.992;2023-02-28T02:28:26;-1.80;99.90
22503;DHT22;11418;48.118;9.992;2023-02-28T02:36:53;-1.90;99.90
22503;DHT22;11418;48.118;9.992;2023-02-28T02:41:31;-1.80;99.90
22503;DHT22;11418;48.118;9.992;2023-02-28T02:45:40;-1.70;99.90
22503;DHT22;11418;48.118;9.992;2023-02-28T02:49:48;-1.70;99.90
22503;DHT22;11418;48.118;9.992;2023-02-28T02:53:57;-1.70;99.90
22503;DHT22;11418;48.118;9.992;2023-02-28T02:58:11;-1.70;99.90
22503;DHT22;11418;48.118;9.992;2023-02-28T03:02:15;-1.80;99.90
22503;DHT22;11418;48.118;9.992;2023-02-28T03:06:20;-1.80;99.90
22503;DHT22;11418;48.118;9.992;2023-02-28T03:10:42;-1.80;99.90
22503;DHT22;11418;48.118;9.992;2023-02-28T03:23:42;-1.80;99.90
22503;DHT22;11418;48.118;9.992;2023-02-28T03:27:49;-1.80;99.90
22503;DHT22;11418;48.118;9.992;2023-02-28T03:32:38;-1.80;99.90
22503;DHT22;11418;48.118;9.992;2023-02-28T03:36:35;-1.80;99.90
22503;DHT22;11418;48.118;9.992;2023-02-28T03:41:01;-1.90;99.90
22503;DHT22;11418;48.118;9.992;2023-02-28T03:45:09;-1.80;99.90
22503;DHT22;11418;48.118;9.992;2023-02-28T03:49:23;-1.70;99.90
22503;DHT22;11418;48.118;9.992;2023-02-28T03:53:37;-1.90;99.90
22503;DHT22;11418;48.118;9.992;2023-02-28T04:01:47;-1.90;99.90
22503;DHT22;11418;48.118;9.992;2023-02-28T04:05:53;-1.80;99.90
22503;DHT22;11418;48.118;9.992;2023-02-28T04:09:55;-1.90;99.90
22503;DHT22;11418;48.118;9.992;2023-02-28T04:13:55;-1.90;99.90
22503;DHT22;11418;48.118;9.992;2023-02-28T04:17:56;-1.90;99.90
22503;DHT22;11418;48.118;9.992;2023-02-28T04:21:56;-1.80;99.90
22503;DHT22;11418;48.118;9.992;2023-02-28T04:25:57;-1.90;99.90
22503;DHT22;11418;48.118;9.992;2023-02-28T04:29:57;-1.90;99.90
22503;DHT22;11418;48.118;9.992;2023-02-28T04:33:58;-2.00;99.90
22503;DHT22;11418;48.118;9.992;2023-02-28T04:37:59;-2.00;99.90
22503;DHT22;11418;48.118;9.992;2023-02-28T04:41:59;-2.00;99.90
22503;DHT22;11418;48.118;9.992;2023-02-28T04:46:02;-2.10;99.90
22503;DHT22;11418;48.118;9.992;2023-02-28T04:50:03;-2.00;99.90
22503;DHT22;11418;48.118;9.992;2023-02-28T04:54:04;-2.10;99.90
22503;DHT22;11418;48.118;9.992;2023-02-28T04:58:05;-2.00;99.90
22503;DHT22;11418;48.118;9.992;2023-02-28T05:02:05;-2.10;99.90
22503;DHT22;11418;48.118;9.992;2023-02-28T05:06:07;-2.10;99.90
22503;DHT22;11418;48.118;9.992;2023-02-28T05:10:09;-2.20;99.90
22503;DHT22;11418;48.118;9.992;2023-02-28T05:14:13;-2.20;99.90
22503;DHT22;11418;48.118;9.992;2023-02-28T05:18:14;-2.20;99.90
22503;DHT22;11418;48.118;9.992;2023-02-28T05:22:15;-2.20;99.90
22503;DHT22;11418;48.118;9.992;2023-02-28T05:26:19;-2.20;99.90
22503;DHT22;11418;48.118;9.992;2023-02-28T05:30:20;-2.10;99.90
22503;DHT22;11418;48.118;9.992;2023-02-28T05:34:20;-2.10;99.90
22503;DHT22;11418;48.118;9.992;2023-02-28T05:38:21;-2.10;99.90
22503;DHT22;11418;48.118;9.992;2023-02-28T05:42:21;-2.20;99.90
22503;DHT22;11418;48.118;9.992;2023-02-28T05:46:22;-2.10;99.90
22503;DHT22;11418;48.118;9.992;2023-02-28T05:50:22;-2.10;99.90
22503;DHT22;11418;48.118;9.992;2023-02-28T05:54:23;-2.10;99.90
22503;DHT22;11418;48.118;9.992;2023-02-28T05:58:24;-2.20;99.90
22503;DHT22;11418;48.118;9.992;2023-02-28T06:02:29;-2.20;99.90
22503;DHT22;11418;48.118;9.992;2023-02-28T06:06:30;-2.10;99.90
22503;DHT22;11418;48.118;9.992;2023-02-28T06:10:30;-2.00;99.90
22503;DHT22;11418;48.118;9.992;2023-02-28T06:14:32;-2.10;99.90
22503;DHT22;11418;48.118;9.992;2023-02-28T06:18:33;-2.00;99.90
22503;DHT22;11418;48.118;9.992;2023-02-28T06:22:37;-2.00;99.90
22503;DHT22;11418;48.118;9.992;2023-02-28T06:26:38;-2.00;99.90
22503;DHT22;11418;48.118;9.992;2023-02-28T06:30:39;-1.90;99.90
22503;DHT22;11418;48.118;9.992;2023-02-28T06:34:39;-1.90;99.90
22503;DHT22;11418;48.118;9.992;2023-02-28T06:38:40;-1.90;99.90
22503;DHT22;11418;48.118;9.992;2023-02-28T06:42:41;-1.90;99.90
22503;DHT22;11418;48.118;9.992;2023-02-28T06:46:43;-1.80;99.90
22503;DHT22;11418;48.118;9.992;2023-02-28T06:50:44;-2.00;99.90
22503;DHT22;11418;48.118;9.992;2023-02-28T06:54:44;-1.90;99.90
22503;DHT22;11418;48.118;9.992;2023-02-28T06:58:49;-1.90;99.90
22503;DHT22;11418;48.118;9.992;2023-02-28T07:02:51;-1.80;99.90
22503;DHT22;11418;48.118;9.992;2023-02-28T07:06:51;-1.80;99.90
22503;DHT22;11418;48.118;9.992;2023-02-28T07:10:53;-1.80;99.90
22503;DHT22;11418;48.118;9.992;2023-02-28T07:14:54;-1.80;99.90
22503;DHT22;11418;48.118;9.992;2023-02-28T07:18:56;-1.70;99.90
22503;DHT22;11418;48.118;9.992;2023-02-28T07:22:56;-1.80;99.90
22503;DHT22;11418;48.118;9.992;2023-02-28T07:26:57;-1.80;99.90
22503;DHT22;11418;48.118;9.992;2023-02-28T07:31:04;-1.80;99.90
22503;DHT22;11418;48.118;9.992;2023-02-28T07:35:05;-1.70;99.90
22503;DHT22;11418;48.118;9.992;2023-02-28T07:39:06;-1.70;99.90
22503;DHT22;11418;48.118;9.992;2023-02-28T07:43:06;-1.60;99.90
22503;DHT22;11418;48.118;9.992;2023-02-28T07:47:08;-1.50;99.90
22503;DHT22;11418;48.118;9.992;2023-02-28T07:51:09;-1.30;99.90
22503;DHT22;11418;48.118;9.992;2023-02-28T07:55:10;-1.20;99.90
22503;DHT22;11418;48.118;9.992;2023-02-28T07:59:10;-1.30;99.90
22503;DHT22;11418;48.118;9.992;2023-02-28T08:03:12;-1.40;99.90
22503;DHT22;11418;48.118;9.992;2023-02-28T08:07:13;-1.30;99.90
22503;DHT22;11418;48.118;9.992;2023-02-28T08:11:14;-1.30;99.90
22503;DHT22;11418;48.118;9.992;2023-02-28T08:15:15;-1.30;99.90
22503;DHT22;11418;48.118;9.992;2023-02-28T08:19:15;-1.20;99.90
22503;DHT22;11418;48.118;9.992;2023-02-28T08:23:16;-1.20;99.90
22503;DHT22;11418;48.118;9.992;2023-02-28T08:27:16;-1.20;99.90
22503;DHT22;11418;48.118;9.992;2023-02-28T08:31:18;-1.20;99.90
22503;DHT22;11418;48.118;9.992;2023-02-28T08:35:19;-1.20;99.90
22503;DHT22;11418;48.118;9.992;2023-02-28T08:39:19;-1.30;99.90
22503;DHT22;11418;48.118;9.992;2023-02-28T08:43:20;-1.30;99.90
22503;DHT22;11418;48.118;9.992;2023-02-28T08:47:20;-0.90;99.90
22503;DHT22;11418;48.118;9.992;2023-02-28T08:51:22;-0.90;99.90
22503;DHT22;11418;48.118;9.992;2023-02-28T08:55:27;-0.80;99.90
22503;DHT22;11418;48.118;9.992;2023-02-28T08:59:28;-0.80;99.90
22503;DHT22;11418;48.118;9.992;2023-02-28T09:03:29;-0.80;99.90
22503;DHT22;11418;48.118;9.992;2023-02-28T09:07:29;-0.70;99.90
22503;DHT22;11418;48.118;9.992;2023-02-28T09:11:30;-0.70;99.90
22503;DHT22;11418;48.118;9.992;2023-02-28T09:15:30;-0.60;99.90
22503;DHT22;11418;48.118;9.992;2023-02-28T09:19:31;-0.60;99.90
22503;DHT22;11418;48.118;9.992;2023-02-28T09:23:31;-0.80;99.90
22503;DHT22;11418;48.118;9.992;2023-02-28T09:27:32;-0.90;99.90
22503;DHT22;11418;48.118;9.992;2023-02-28T09:31:32;-1.10;99.90
22503;DHT22;11418;48.118;9.992;2023-02-28T09:35:33;-1.10;99.90
22503;DHT22;11418;48.118;9.992;2023-02-28T09:39:34;-0.80;99.90
22503;DHT22;11418;48.118;9.992;2023-02-28T09:43:37;-0.80;99.90
22503;DHT22;11418;48.118;9.992;2023-02-28T09:47:44;-0.90;99.90
22503;DHT22;11418;48.118;9.992;2023-02-28T09:52:10;-0.90;99.90
22503;DHT22;11418;48.118;9.992;2023-02-28T09:56:15;-0.90;99.90
22503;DHT22;11418;48.118;9.992;2023-02-28T10:13:02;-0.10;99.90
22503;DHT22;11418;48.118;9.992;2023-02-28T10:17:11;0.00;99.90
22503;DHT22;11418;48.118;9.992;2023-02-28T10:21:26;-0.30;99.90
22503;DHT22;11418;48.118;9.992;2023-02-28T10:25:29;-0.10;99.90
22503;DHT22;11418;48.118;9.992;2023-02-28T10:29:32;-0.20;99.90
22503;DHT22;11418;48.118;9.992;2023-02-28T10:33:34;0.00;99.90
22503;DHT22;11418;48.118;9.992;2023-02-28T10:37:39;0.20;99.90
22503;DHT22;11418;48.118;9.992;2023-02-28T10:41:43;0.00;99.90
22503;DHT22;11418;48.118;9.992;2023-02-28T10:49:53;0.50;99.90
22503;DHT22;11418;48.118;9.992;2023-02-28T10:53:55;0.50;99.90
22503;DHT22;11418;48.118;9.992;2023-02-28T10:57:56;0.60;99.90
22503;DHT22;11418;48.118;9.992;2023-02-28T11:01:57;0.10;99.90
22503;DHT22;11418;48.118;9.992;2023-02-28T11:05:58;0.00;99.90
22503;DHT22;11418;48.118;9.992;2023-02-28T11:09:59;0.20;99.90
22503;DHT22;11418;48.118;9.992;2023-02-28T11:14:04;0.40;99.90
22503;DHT22;11418;48.118;9.992;2023-02-28T11:18:16;0.50;99.90
22503;DHT22;11418;48.118;9.992;2023-02-28T11:22:22;0.70;99.90
22503;DHT22;11418;48.118;9.992;2023-02-28T11:26:42;0.80;99.90
22503;DHT22;11418;48.118;9.992;2023-02-28T11:30:43;1.00;99.90
22503;DHT22;11418;48.118;9.992;2023-02-28T11:34:45;1.30;99.90
22503;DHT22;11418;48.118;9.992;2023-02-28T11:38:47;1.50;99.90
22503;DHT22;11418;48.118;9.992;2023-02-28T11:51:47;1.50;99.90
22503;DHT22;11418;48.118;9.992;2023-02-28T11:55:57;1.20;99.90
22503;DHT22;11418;48.118;9.992;2023-02-28T12:00:35;1.10;99.90
22503;DHT22;11418;48.118;9.992;2023-02-28T12:05:50;1.40;99.90
22503;DHT22;11418;48.118;9.992;2023-02-28T12:22:45;3.40;99.90
22503;DHT22;11418;48.118;9.992;2023-02-28T12:26:50;2.80;99.90
22503;DHT22;11418;48.118;9.992;2023-02-28T12:30:58;2.80;99.90
22503;DHT22;11418;48.118;9.992;2023-02-28T12:39:15;3.10;99.90
22503;DHT22;11418;48.118;9.992;2023-02-28T12:43:18;3.00;99.90
22503;DHT22;11418;48.118;9.992;2023-02-28T12:47:20;2.40;99.90
22503;DHT22;11418;48.118;9.992;2023-02-28T12:51:20;2.40;99.90
22503;DHT22;11418;48.118;9.992;2023-02-28T12:55:47;3.10;99.90
22503;DHT22;11418;48.118;9.992;2023-02-28T12:59:53;2.00;99.90
22503;DHT22;11418;48.118;9.992;2023-02-28T13:13:03;2.80;99.90
22503;DHT22;11418;48.118;9.992;2023-02-28T13:21:28;4.50;99.90
22503;DHT22;11418;48.118;9.992;2023-02-28T13:29:38;5.10;99.90
22503;DHT22;11418;48.118;9.992;2023-02-28T13:37:49;5.00;99.90
22503;DHT22;11418;48.118;9.992;2023-02-28T13:41:50;4.40;99.90
22503;DHT22;11418;48.118;9.992;2023-02-28T13:46:08;5.10;99.90
22503;DHT22;11418;48.118;9.992;2023-02-28T13:50:32;4.80;99.90
22503;DHT22;11418;48.118;9.992;2023-02-28T13:55:06;5.70;99.90
22503;DHT22;11418;48.118;9.992;2023-02-28T13:59:36;4.80;99.90
22503;DHT22;11418;48.118;9.992;2023-02-28T14:03:52;5.40;99.90
22503;DHT22;11418;48.118;9.992;2023-02-28T14:08:04;4.70;99.90
22503;DHT22;11418;48.118;9.992;2023-02-28T14:16:46;7.20;99.90
22503;DHT22;11418;48.118;9.992;2023-02-28T14:20:49;8.00;99.90
22503;DHT22;11418;48.118;9.992;2023-02-28T14:25:15;7.60;99.90
22503;DHT22;11418;48.118;9.992;2023-02-28T14:38:29;4.30;99.90
22503;DHT22;11418;48.118;9.992;2023-02-28T14:42:36;5.00;99.90
22503;DHT22;11418;48.118;9.992;2023-02-28T14:46:40;4.30;99.90
22503;DHT22;11418;48.118;9.992;2023-02-28T14:50:49;4.00;99.90
22503;DHT22;11418;48.118;9.992;2023-02-28T14:55:17;4.10;99.90
22503;DHT22;11418;48.118;9.992;2023-02-28T15:07:35;3.90;99.90
22503;DHT22;11418;48.118;9.992;2023-02-28T15:11:37;3.60;99.90
22503;DHT22;11418;48.118;9.992;2023-02-28T15:15:57;3.80;99.90
22503;DHT22;11418;48.118;9.992;2023-02-28T15:19:59;3.60;99.90
22503;DHT22;11418;48.118;9.992;2023-02-28T15:28:24;3.50;99.90
22503;DHT22;11418;48.118;9.992;2023-02-28T15:32:35;3.00;99.90
22503;DHT22;11418;48.118;9.992;2023-02-28T15:36:36;2.90;99.90
22503;DHT22;11418;48.118;9.992;2023-02-28T15:40:40;2.90;99.90
22503;DHT22;11418;48.118;9.992;2023-02-28T15:44:41;2.90;99.90
22503;DHT22;11418;48.118;9.992;2023-02-28T15:48:54;2.70;99.90
22503;DHT22;11418;48.118;9.992;2023-02-28T15:52:55;2.70;99.90
22503;DHT22;11418;48.118;9.992;2023-02-28T15:56:58;2.70;99.90
22503;DHT22;11418;48.118;9.992;2023-02-28T16:01:07;2.50;99.90
22503;DHT22;11418;48.118;9.992;2023-02-28T16:09:14;2.50;99.90
22503;DHT22;11418;48.118;9.992;2023-02-28T16:13:21;2.40;99.90
22503;DHT22;11418;48.118;9.992;2023-02-28T16:17:26;2.10;99.90
22503;DHT22;11418;48.118;9.992;2023-02-28T16:21:28;2.10;99.90
22503;DHT22;11418;48.118;9.992;2023-02-28T16:25:42;2.00;99.90
22503;DHT22;11418;48.118;9.992;2023-02-28T16:29:44;2.00;99.90
22503;DHT22;11418;48.118;9.992;2023-02-28T16:33:45;1.90;99.90
22503;DHT22;11418;48.118;9.992;2023-02-28T16:37:46;1.80;99.90
22503;DHT22;11418;48.118;9.992;2023-02-28T16:41:48;1.70;99.90
22503;DHT22;11418;48.118;9.992;2023-02-28T16:45:55;1.60;99.90
22503;DHT22;11418;48.118;9.992;2023-02-28T16:49:56;1.40;99.90
22503;DHT22;11418;48.118;9.992;2023-02-28T16:53:57;1.30;99.90
22503;DHT22;11418;48.118;9.992;2023-02-28T16:57:59;1.10;99.90
22503;DHT22;11418;48.118;9.992;2023-02-28T17:02:00;1.00;99.90
22503;DHT22;11418;48.118;9.992;2023-02-28T17:06:01;0.90;99.90
22503;DHT22;11418;48.118;9.992;2023-02-28T17:10:01;0.80;99.90
22503;DHT22;11418;48.118;9.992;2023-02-28T17:14:08;0.60;99.90
22503;DHT22;11418;48.118;9.992;2023-02-28T17:18:14;0.40;99.90
22503;DHT22;11418;48.118;9.992;2023-02-28T17:22:16;0.30;99.90
22503;DHT22;11418;48.118;9.992;2023-02-28T17:26:18;0.00;99.90
22503;DHT22;11418;48.118;9.992;2023-02-28T17:30:24;-0.20;99.90
22503;DHT22;11418;48.118;9.992;2023-02-28T17:34:27;-0.40;99.90
22503;DHT22;11418;48.118;9.992;2023-02-28T17:38:29;-0.80;99.90
22503;DHT22;11418;48.118;9.992;2023-02-28T17:42:29;-0.90;99.90
22503;DHT22;11418;48.118;9.992;2023-02-28T17:46:30;-0.90;99.90
22503;DHT22;11418;48.118;9.992;2023-02-28T17:50:30;-1.10;99.90
22503;DHT22;11418;48.118;9.992;2023-02-28T17:54:32;-1.00;99.90
22503;DHT22;11418;48.118;9.992;2023-02-28T17:58:32;-1.10;99.90
22503;DHT22;11418;48.118;9.992;2023-02-28T18:02:33;-1.40;99.90
22503;DHT22;11418;48.118;9.992;2023-02-28T18:06:37;-1.50;99.90
22503;DHT22;11418;48.118;9.992;2023-02-28T18:10:46;-1.60;99.90
22503;DHT22;11418;48.118;9.992;2023-02-28T18:14:46;-1.60;99.90
22503;DHT22;11418;48.118;9.992;2023-02-28T18:18:48;-1.70;99.90
22503;DHT22;11418;48.118;9.992;2023-02-28T18:22:49;-1.70;99.90
22503;DHT22;11418;48.118;9.992;2023-02-28T18:26:49;-1.70;99.90
22503;DHT22;11418;48.118;9.992;2023-02-28T18:30:50;-1.90;99.90
22503;DHT22;11418;48.118;9.992;2023-02-28T18:34:51;-2.00;99.90
22503;DHT22;11418;48.118;9.992;2023-02-28T18:38:52;-2.00;99.90
22503;DHT22;11418;48.118;9.992;2023-02-28T18:42:53;-2.00;99.90
22503;DHT22;11418;48.118;9.992;2023-02-28T18:46:53;-2.40;99.90
22503;DHT22;11418;48.118;9.992;2023-02-28T18:50:54;-2.70;99.90
22503;DHT22;11418;48.118;9.992;2023-02-28T18:54:54;-3.00;99.90
22503;DHT22;11418;48.118;9.992;2023-02-28T18:58:55;-3.00;99.90
22503;DHT22;11418;48.118;9.992;2023-02-28T19:02:56;-2.90;99.90
22503;DHT22;11418;48.118;9.992;2023-02-28T19:06:56;-2.90;99.90
22503;DHT22;11418;48.118;9.992;2023-02-28T19:10:57;-3.10;99.90
22503;DHT22;11418;48.118;9.992;2023-02-28T19:14:57;-3.20;99.90
22503;DHT22;11418;48.118;9.992;2023-02-28T19:18:58;-3.20;99.90
22503;DHT22;11418;48.118;9.992;2023-02-28T19:22:58;-3.30;99.90
22503;DHT22;11418;48.118;9.992;2023-02-28T19:26:59;-3.40;99.90
22503;DHT22;11418;48.118;9.992;2023-02-28T19:30:59;-3.40;99.90
22503;DHT22;11418;48.118;9.992;2023-02-28T19:35:00;-3.40;99.90
22503;DHT22;11418;48.118;9.992;2023-02-28T19:39:02;-3.60;99.90
22503;DHT22;11418;48.118;9.992;2023-02-28T19:43:02;-3.70;99.90
22503;DHT22;11418;48.118;9.992;2023-02-28T19:47:03;-3.80;99.90
22503;DHT22;11418;48.118;9.992;2023-02-28T19:51:06;-3.90;99.90
22503;DHT22;11418;48.118;9.992;2023-02-28T19:55:08;-3.90;99.90
22503;DHT22;11418;48.118;9.992;2023-02-28T19:59:09;-3.90;99.90
22503;DHT22;11418;48.118;9.992;2023-02-28T20:03:09;-4.00;99.90
22503;DHT22;11418;48.118;9.992;2023-02-28T20:07:10;-4.10;99.90
22503;DHT22;11418;48.118;9.992;2023-02-28T20:11:13;-4.10;99.90
22503;DHT22;11418;48.118;9.992;2023-02-28T20:15:15;-3.90;99.90
22503;DHT22;11418;48.118;9.992;2023-02-28T20:19:15;-3.70;99.90
22503;DHT22;11418;48.118;9.992;2023-02-28T20:23:17;-3.50;99.90
22503;DHT22;11418;48.118;9.992;2023-02-28T20:27:17;-3.30;99.90
22503;DHT22;11418;48.118;9.992;2023-02-28T20:31:23;-3.20;99.90
22503;DHT22;11418;48.118;9.992;2023-02-28T20:35:24;-3.20;99.90
22503;DHT22;11418;48.118;9.992;2023-02-28T20:39:25;-3.00;99.90
22503;DHT22;11418;48.118;9.992;2023-02-28T20:43:26;-2.90;99.90
22503;DHT22;11418;48.118;9.992;2023-02-28T20:47:27;-2.80;99.90
22503;DHT22;11418;48.118;9.992;2023-02-28T20:51:27;-2.50;99.90
22503;DHT22;11418;48.118;9.992;2023-02-28T20:55:28;-1.90;99.90
22503;DHT22;11418;48.118;9.992;2023-02-28T20:59:28;-1.80;99.90
22503;DHT22;11418;48.118;9.992;2023-02-28T21:03:29;-1.60;99.90
22503;DHT22;11418;48.118;9.992;2023-02-28T21:07:30;-1.70;99.90
22503;DHT22;11418;48.118;9.992;2023-02-28T21:11:33;-1.70;99.90
22503;DHT22;11418;48.118;9.992;2023-02-28T21:15:37;-1.60;99.90
22503;DHT22;11418;48.118;9.992;2023-02-28T21:19:40;-1.40;99.90
22503;DHT22;11418;48.118;9.992;2023-02-28T21:23:41;-1.30;99.90
22503;DHT22;11418;48.118;9.992;2023-02-28T21:27:44;-1.20;99.90
22503;DHT22;11418;48.118;9.992;2023-02-28T21:31:45;-1.10;99.90
22503;DHT22;11418;48.118;9.992;2023-02-28T21:35:45;-0.90;99.90
22503;DHT22;11418;48.118;9.992;2023-02-28T21:39:46;-1.00;99.90
22503;DHT22;11418;48.118;9.992;2023-02-28T21:43:47;-0.70;99.90
22503;DHT22;11418;48.118;9.992;2023-02-28T21:47:48;-0.60;99.90
22503;DHT22;11418;48.118;9.992;2023-02-28T21:51:48;-0.50;99.90
22503;DHT22;11418;48.118;9.992;2023-02-28T21:55:49;-0.40;99.90
22503;DHT22;11418;48.118;9.992;2023-02-28T21:59:49;-0.40;99.90
22503;DHT22;11418;48.118;9.992;2023-02-28T22:03:51;-0.30;99.90
22503;DHT22;11418;48.118;9.992;2023-02-28T22:07:52;-0.30;99.90
22503;DHT22;11418;48.118;9.992;2023-02-28T22:11:52;-0.20;99.90
22503;DHT22;11418;48.118;9.992;2023-02-28T22:15:53;-0.30;99.90
22503;DHT22;11418;48.118;9.992;2023-02-28T22:19:57;-0.20;99.90
22503;DHT22;11418;48.118;9.992;2023-02-28T22:23:58;-0.20;99.90
22503;DHT22;11418;48.118;9.992;2023-02-28T22:27:59;-0.20;99.90
22503;DHT22;11418;48.118;9.992;2023-02-28T22:31:59;-0.20;99.90
22503;DHT22;11418;48.118;9.992;2023-02-28T22:36:04;-0.20;99.90
22503;DHT22;11418;48.118;9.992;2023-02-28T22:40:05;-0.20;99.90
22503;DHT22;11418;48.118;9.992;2023-02-28T22:44:06;-0.20;99.90
22503;DHT22;11418;48.118;9.992;2023-02-28T22:48:07;-0.10;99.90
22503;DHT22;11418;48.118;9.992;2023-02-28T22:52:08;-0.10;99.90
22503;DHT22;11418;48.118;9.992;2023-02-28T22:56:11;-0.10;99.90
22503;DHT22;11418;48.118;9.992;2023-02-28T23:00:13;-0.10;99.90
22503;DHT22;11418;48.118;9.992;2023-02-28T23:04:14;-0.10;99.90
22503;DHT22;11418;48.118;9.992;2023-02-28T23:08:15;-0.10;99.90
22503;DHT22;11418;48.118;9.992;2023-02-28T23:12:17;-0.10;99.90
22503;DHT22;11418;48.118;9.992;2023-02-28T23:16:17;-0.10;99.90
22503;DHT22;11418;48.118;9.992;2023-02-28T23:20:19;-0.10;99.90
22503;DHT22;11418;48.118;9.992;2023-02-28T23:24:22;-0.10;99.90
22503;DHT22;11418;48.118;9.992;2023-02-28T23:28:23;0.00;99.90
22503;DHT22;11418;48.118;9.992;2023-02-28T23:32:23;0.00;99.90
22503;DHT22;11418;48.118;9.992;2023-02-28T23:36:24;0.00;99.90
22503;DHT22;11418;48.118;9.992;2023-02-28T23:40:25;0.00;99.90
22503;DHT22;11418;48.118;9.992;2023-02-28T23:44:26;0.10;99.90
22503;DHT22;11418;48.118;9.992;2023-02-28T23:48:27;0.10;99.90
22503;DHT22;11418;48.118;9.992;2023-02-28T23:52:27;0.10;99.90
22503;DHT22;11418;48.118;9.992;2023-02-28T23:56:29;0.10;99.90
